Holy Trinity, AL

12:00 PM CDT on August 29, 2014 (GMT -0500)
Lawson Army Air Field | Change Station
CLOSE
Current Station
Airport
Location: Fort Benning,
Elevation: 233 ft
Nearby Weather Stations

Elev 233 ft 32.32 °N, 84.98 °W | Updated 2 minutes ago

Clear
Clear
92 °F
Feels Like 93 °F
N
2
Wind Variable Wind from Variable

Today
High -- | Low -- °F
--% Chance of Precip.
Yesterday
High -- | Low -- °F
Precip. -- in
6:13 AM 7:08 PM
Waxing Crescent, 15% visible
Pressure 30.05 in
Visibility 10.0 miles
Clouds Clear
Heat Index 93 °F
Dew Point 64 °F
Humidity 40%
Rainfall 0.00 in
Snow Depth Not available.
UV 11 out of 12
Pollen 9.00 out of 12
Ozone Good
PM2.5 Moderate
Flu Activity Not available.
METAR KLSF 291658Z AUTO VRB02KT 10SM CLR 33/18 A3005 RMK AO2 SLP176 T03310177

More Conditions Fewer Conditions

Pressure 30.05 in
Visibility 10.0 miles
Clouds Clear
Heat Index 93 °F
Dew Point 64 °F
Humidity 40%
Rainfall 0.00 in
Snow Depth Not available.
UV 11 out of 12
Pollen 9.00 out of 12
Ozone Good
PM2.5 Moderate
Flu Activity Not available.
METAR KLSF 291658Z AUTO VRB02KT 10SM CLR 33/18 A3005 RMK AO2 SLP176 T03310177

More Conditions Fewer Conditions

10-Day Weather Forecast

Almanac

Astronomy

Aug. 29, 2014 Rise Set
Actual Time 6:13 AM CDT 7:08 PM CDT
Civil Twilight 5:48 AM CDT 7:33 PM CDT
Nautical Twilight 5:19 AM CDT 8:03 PM CDT
Astronomical Twilight 4:48 AM CDT 8:33 PM CDT
Moon 9:47 AM CDT 9:22 PM CDT
Length of Visible Light 13h 44m
Length of Day
12h 54m
Tomorrow will be 1m 52s shorter.
Waxing Crescent, 15% of the Moon is Illuminated
Today
Waxing Crescent
Sep 2
First Quarter
Sep 8
Full
Sep 15
Last Quarter
Sep 24
New

Today's Extremes

State Highs State Lows

Community

WunderPhotos

Upload Photos

1,748,297 photos uploaded!

Nearby

Air Quality

  Air Quality AQ Index Pollutant
Yesterday Moderate
OZONE
Yesterday Good
PM2.5
Current Moderate
PM2.5
Current Good
OZONE
Friday Moderate
PM2.5

Snow Depth

Station Depth Elevation
No new snow has been reported.

Earthquake Activity

City Distance Mag. Time & Date
No recent earthquake activity has been reported nearby.
Minimum magnitude displayed is 2.5.

Coastal Water Temperatures

Place Temperature
No Stations Reporting

Nearby Weather Stations